Time;durP1;ratioP1;P1;durP2;ratioP2;P2;SDS_P1;SDS_P2;PMS_P1;PMS_P2;Temp;Humidity;BMP_temperature;BMP_pressure;BME280_temperature;BME280_humidity;BME280_pressure;Samples;Min_cycle;Max_cycle;Signal;HPM_P1;HPM_P2
2023/03/15 06:02:10;;;;;;;;;5.00;5.00;;;;;6.57;64.18;10645.81;5173764;23;45609;-88
2023/03/15 06:05:03;;;;;;;;;3.00;3.00;;;;;7.71;64.33;10671.00;4977829;28;45567;-89
2023/03/15 06:07:29;;;;;;;;;4.33;4.33;;;;;6.86;64.65;10652.34;5002726;22;46263;-88
2023/03/15 06:09:54;;;;;;;;;3.00;3.00;;;;;7.23;64.50;10328.81;4959684;28;45317;-90
2023/03/15 06:12:19;;;;;;;;;6.00;3.67;;;;;6.43;64.74;9649.16;4959719;28;46066;-90
2023/03/15 06:14:45;;;;;;;;;5.00;4.00;;;;;6.45;64.52;9649.66;4961765;28;45502;-90
2023/03/15 06:17:10;;;;;;;;;6.67;5.67;;;;;6.81;64.47;9325.63;4961575;28;46940;-87
2023/03/15 06:19:36;;;;;;;;;4.00;3.00;;;;;7.24;64.46;9334.09;4964641;28;45463;-88
2023/03/15 06:22:02;;;;;;;;;3.00;3.00;;;;;7.68;65.12;8679.41;4985024;28;45356;-88
2023/03/15 06:24:28;;;;;;;;;2.67;2.67;;;;;7.29;64.85;8340.47;4975799;28;45333;-88
2023/03/15 06:26:53;;;;;;;;;5.33;3.67;;;;;7.27;65.10;8008.59;4975637;28;46679;-88
2023/03/15 06:29:20;;;;;;;;;9.33;7.67;;;;;7.51;64.93;7681.38;4975667;28;45554;-89
2023/03/15 06:31:48;;;;;;;;;4.67;4.67;;;;;7.78;64.65;7354.34;4958759;28;45443;-88
2023/03/15 06:34:14;;;;;;;;;7.00;7.00;;;;;7.72;64.67;7021.69;4958350;28;45417;-89
2023/03/15 06:36:41;;;;;;;;;7.00;7.00;;;;;7.13;65.17;6680.78;4975379;28;46290;-90
2023/03/15 06:39:07;;;;;;;;;5.67;5.67;;;;;7.81;65.12;6359.88;4976158;28;45460;-90
2023/03/15 06:41:32;;;;;;;;;7.67;7.67;;;;;7.14;65.25;5687.28;4974738;28;45787;-91
2023/03/15 06:43:58;;;;;;;;;7.00;5.00;;;;;7.15;65.27;5687.34;4959157;28;45366;-96
2023/03/15 06:46:25;;;;;;;;;7.67;7.67;;;;;6.22;64.93;5343.63;4955359;28;45547;-89
2023/03/15 06:48:51;;;;;;;;;4.00;4.00;;;;;7.52;64.94;5029.75;4975322;28;45380;-89
2023/03/15 06:51:19;;;;;;;;;8.00;8.00;;;;;6.75;65.12;5019.88;4957959;28;45677;-91
2023/03/15 06:53:44;;;;;;;;;6.33;6.33;;;;;7.17;65.42;4362.97;4977171;28;45369;-92
2023/03/15 06:56:12;;;;;;;;;8.00;6.67;;;;;6.63;65.01;4356.63;4962091;28;47026;-93
2023/03/15 06:58:37;;;;;;;;;7.00;6.00;;;;;7.68;65.35;4037.69;4960013;28;45342;-91
2023/03/15 07:01:03;;;;;;;;;4.67;3.00;;;;;7.07;65.61;3037.78;4979337;28;45536;-93
2023/03/15 07:03:28;;;;;;;;;7.33;5.00;;;;;7.65;65.41;3043.44;4961168;28;45210;-95
2023/03/15 07:05:54;;;;;;;;;6.67;4.67;;;;;7.42;65.41;2710.13;4979326;28;46327;-88
2023/03/15 07:08:21;;;;;;;;;4.33;4.33;;;;;8.13;65.35;2716.69;4982699;28;45356;-92
2023/03/15 07:10:48;;;;;;;;;6.67;5.00;;;;;6.68;65.15;2703.28;4963102;28;45998;-92
2023/03/15 07:13:14;;;;;;;;;4.00;3.00;;;;;7.19;65.19;2377.03;4972355;28;45849;-92
2023/03/15 07:15:39;;;;;;;;;2.67;2.67;;;;;7.46;65.46;2048.28;4961611;28;48115;-91
2023/03/15 07:18:05;;;;;;;;;6.00;3.00;;;;;8.20;65.08;2054.38;4946291;28;45455;-93
2023/03/15 07:20:31;;;;;;;;;12.33;11.00;;;;;8.08;65.26;1721.97;4966688;28;45517;-91
2023/03/15 07:22:56;;;;;;;;;7.00;5.67;;;;;6.78;65.12;2042.75;4969489;28;45294;-92
2023/03/15 07:25:22;;;;;;;;;6.33;4.00;;;;;7.42;65.23;1385.91;4977807;28;46075;-91
2023/03/15 07:27:52;;;;;;;;;6.67;5.00;;;;;8.59;64.98;731.06;4975945;28;45351;-92
2023/03/15 07:30:19;;;;;;;;;5.00;5.00;;;;;7.49;64.85;724.44;4967402;28;45507;-91
2023/03/15 07:32:44;;;;;;;;;5.67;4.33;;;;;7.50;65.04;724.50;4958900;28;45322;-91
2023/03/15 07:35:10;;;;;;;;;7.67;6.00;;;;;7.94;64.67;727.19;4958943;28;47179;-92
2023/03/15 07:37:35;;;;;;;;;5.33;5.33;;;;;7.76;64.42;1719.53;4979749;28;45818;-91
2023/03/15 07:40:08;;;;;;;;;3.00;3.00;;;;;8.20;64.33;728.72;4977732;28;45552;-91
2023/03/15 07:42:37;;;;;;;;;6.00;4.00;;;;;7.80;64.32;726.34;4962398;28;45477;-91
2023/03/15 07:45:04;;;;;;;;;5.33;5.33;;;;;9.09;64.50;734.16;4960629;28;48579;-93
2023/03/15 07:47:29;;;;;;;;;5.33;4.00;;;;;8.52;64.59;730.66;4980644;28;45357;-93
2023/03/15 07:49:55;;;;;;;;;5.33;5.00;;;;;8.04;64.11;727.75;4977297;28;45396;-92
2023/03/15 07:52:21;;;;;;;;;3.33;3.33;;;;;9.01;64.09;401.88;4973757;28;45379;-93
2023/03/15 07:54:46;;;;;;;;;3.00;3.00;;;;;8.35;63.70;-264.53;4963157;28;47861;-92
2023/03/15 07:57:12;;;;;;;;;6.00;4.00;;;;;8.58;63.28;731.00;4964496;28;45818;-93
2023/03/15 07:59:37;;;;;;;;;7.67;6.33;;;;;8.69;63.18;731.66;4980919;28;45694;-94
2023/03/15 08:02:03;;;;;;;;;14.33;13.67;;;;;9.68;63.42;737.69;4982552;28;45439;-93
2023/03/15 08:04:29;;;;;;;;;6.33;3.33;;;;;9.35;63.11;403.75;4961582;28;48385;-92
2023/03/15 08:06:55;;;;;;;;;4.00;4.00;;;;;8.62;62.26;1726.13;4960505;28;45850;-93
2023/03/15 08:09:20;;;;;;;;;4.00;3.00;;;;;8.46;62.81;730.31;4974221;28;45851;-92
2023/03/15 08:11:46;;;;;;;;;5.00;4.67;;;;;8.68;62.68;400.00;4977566;28;45528;-92
2023/03/15 08:14:11;;;;;;;;;5.00;4.00;;;;;9.13;62.41;734.38;4966016;28;48353;-92
2023/03/15 08:16:36;;;;;;;;;4.33;4.00;;;;;9.22;61.92;1066.84;4963115;28;45345;-93
2023/03/15 08:19:02;;;;;;;;;4.00;3.00;;;;;8.39;62.49;398.44;4962660;28;45457;-93
2023/03/15 08:21:27;;;;;;;;;3.33;3.33;;;;;9.23;61.98;403.06;4962854;28;45500;-93
2023/03/15 08:23:52;;;;;;;;;4.67;3.00;;;;;10.31;62.08;76.69;4980122;28;46910;-93
2023/03/15 08:26:18;;;;;;;;;4.33;3.00;;;;;9.53;61.86;404.75;4978229;28;45472;-92
2023/03/15 08:28:43;;;;;;;;;5.00;3.67;;;;;10.42;61.96;-255.25;4956896;28;45378;-93
2023/03/15 08:31:09;;;;;;;;;4.00;4.00;;;;;9.75;61.30;405.97;4962869;28;45491;-93
2023/03/15 08:33:34;;;;;;;;;0.67;0.00;;;;;11.00;61.55;80.19;4955435;28;47622;-93
2023/03/15 08:36:00;;;;;;;;;5.67;4.67;;;;;10.74;61.02;411.53;4960890;28;45929;-94
2023/03/15 08:38:26;;;;;;;;;5.67;4.33;;;;;9.57;60.45;404.97;4961314;28;45415;-92
2023/03/15 08:40:57;;;;;;;;;8.00;5.00;;;;;10.19;60.55;740.81;4961746;28;45694;-93
2023/03/15 08:43:23;;;;;;;;;9.33;4.67;;;;;9.89;60.33;1403.56;4957470;28;47243;-94
2023/03/15 08:45:49;;;;;;;;;5.67;5.00;;;;;11.38;59.76;1081.19;4985499;28;45431;-94
2023/03/15 08:48:15;;;;;;;;;6.00;5.00;;;;;10.80;59.96;1410.09;4978090;28;45832;-93
2023/03/15 08:50:40;;;;;;;;;7.00;5.33;;;;;11.66;59.47;1749.56;4962403;28;45642;-93
2023/03/15 08:53:07;;;;;;;;;3.67;3.33;;;;;10.55;59.45;2073.66;4960881;28;48331;-93
2023/03/15 08:55:32;;;;;;;;;6.33;4.33;;;;;10.63;58.69;2739.94;4961926;28;45497;-93
2023/03/15 08:58:00;;;;;;;;;9.33;4.00;;;;;11.26;59.24;2079.56;4961710;28;45540;-93
2023/03/15 09:00:26;;;;;;;;;6.00;4.00;;;;;11.66;59.01;2082.91;4962227;28;45482;-94
2023/03/15 09:02:55;;;;;;;;;4.00;3.00;;;;;10.48;58.68;1740.41;4961587;28;47463;-93
2023/03/15 09:05:22;;;;;;;;;2.00;2.00;;;;;10.55;58.28;2073.66;4954126;28;45613;-94
2023/03/15 09:07:48;;;;;;;;;2.00;2.00;;;;;11.93;57.91;1751.72;4961881;28;45484;-93
2023/03/15 09:10:15;;;;;;;;;5.00;4.00;;;;;10.93;57.65;2076.84;4961377;28;45859;-93
2023/03/15 09:12:56;;;;;;;;;3.00;3.00;;;;;11.02;56.85;3409.63;4961468;28;45661;-92
2023/03/15 09:15:21;;;;;;;;;2.67;2.33;;;;;11.71;56.89;3750.38;4976633;28;45395;-93
2023/03/15 09:17:49;;;;;;;;;3.67;3.67;;;;;11.32;56.75;4079.38;4966348;28;45416;-92
2023/03/15 09:20:15;;;;;;;;;2.33;2.33;;;;;12.62;57.00;4428.47;4979073;28;45362;-93
2023/03/15 09:22:50;;;;;;;;;3.00;3.00;;;;;12.68;56.18;5097.38;4960633;28;47416;-91
2023/03/15 09:25:15;;;;;;;;;3.67;2.33;;;;;12.50;56.20;5428.91;4957460;28;46119;-93
2023/03/15 09:27:40;;;;;;;;;4.00;2.00;;;;;12.57;56.07;5429.97;4959718;28;46948;-91
2023/03/15 09:30:06;;;;;;;;;5.33;1.33;;;;;13.09;55.53;5102.75;4960681;28;45340;-92
2023/03/15 09:32:35;;;;;;;;;1.67;1.67;;;;;12.74;54.94;6434.97;4960112;28;47140;-92
2023/03/15 09:35:03;;;;;;;;;3.00;2.33;;;;;12.82;55.36;6436.22;4977009;28;45452;-92
2023/03/15 09:37:28;;;;;;;;;2.67;2.00;;;;;11.80;55.55;6420.50;4960581;28;45422;-92
2023/03/15 09:39:54;;;;;;;;;2.67;2.33;;;;;13.05;55.57;6105.34;4960749;28;45734;-92
2023/03/15 09:42:29;;;;;;;;;2.33;2.00;;;;;12.66;55.24;6099.50;4957082;28;48433;-91
2023/03/15 09:45:09;;;;;;;;;3.67;3.67;;;;;13.91;55.35;5783.22;4965896;28;45642;-92
2023/03/15 09:48:16;;;;;;;;;1.67;1.67;;;;;13.75;55.06;4776.75;4971694;28;45470;-93
2023/03/15 09:50:53;;;;;;;;;1.00;1.00;;;;;14.10;54.17;6455.88;4959456;28;45384;-93
2023/03/15 09:53:44;;;;;;;;;1.00;1.00;;;;;14.42;54.22;6125.63;4959680;28;47546;-93
2023/03/15 09:56:21;;;;;;;;;4.67;3.33;;;;;14.52;53.01;6462.44;4959343;28;45367;-92
2023/03/15 09:58:50;;;;;;;;;1.67;1.67;;;;;13.96;51.85;7458.56;4954312;28;45468;-93
2023/03/15 10:01:16;;;;;;;;;1.00;1.00;;;;;15.32;50.96;8153.38;4957245;28;45690;-91
2023/03/15 10:03:51;;;;;;;;;2.00;1.00;;;;;16.53;49.58;10531.38;4955691;28;47387;-92
2023/03/15 10:06:25;;;;;;;;;3.33;0.33;;;;;17.31;47.97;13920.78;4975319;28;45479;-92
2023/03/15 10:08:57;;;;;;;;;2.67;2.33;;;;;17.92;47.08;16302.34;4958491;28;45484;-92
2023/03/15 10:11:35;;;;;;;;;1.25;1.25;;;;;18.83;45.43;23104.63;4973920;28;45486;-93
2023/03/15 10:14:25;;;;;;;;;2.00;1.00;;;;;19.08;43.97;31618.53;4956297;28;48518;-88
2023/03/15 10:16:51;;;;;;;;;2.00;2.00;;;;;20.26;43.39;35599.22;4974722;28;45360;-89
2023/03/15 10:19:29;;;;;;;;;1.00;1.00;;;;;20.85;42.83;40693.44;4971133;28;45709;-89
2023/03/15 10:22:13;;;;;;;;;2.75;2.00;;;;;21.37;41.70;47431.94;4955788;28;45715;-89
2023/03/15 10:24:57;;;;;;;;;1.00;1.00;;;;;21.93;41.35;49266.66;4970009;28;46764;-89
2023/03/15 10:27:27;;;;;;;;;2.50;2.50;;;;;22.50;40.70;52566.06;4974938;28;45443;-90
2023/03/15 10:29:56;;;;;;;;;1.00;1.00;;;;;22.81;40.33;53565.72;4973403;28;45543;-89
2023/03/15 10:32:27;;;;;;;;;1.00;1.00;;;;;23.59;39.07;55560.84;4957824;28;45392;-90
2023/03/15 10:34:55;;;;;;;;;4.00;1.75;;;;;24.59;37.86;58878.91;4972076;28;46774;-89
2023/03/15 10:37:22;;;;;;;;;1.00;1.00;;;;;24.43;36.68;61986.75;4970730;28;45787;-89
2023/03/15 10:39:55;;;;;;;;;3.00;2.00;;;;;24.97;35.76;63850.78;4971586;28;45471;-90
2023/03/15 10:42:31;;;;;;;;;3.00;1.00;;;;;25.89;34.75;65259.28;4972709;28;45472;-89
2023/03/15 10:45:10;;;;;;;;;2.00;1.00;;;;;25.63;33.50;65804.34;4957977;28;48299;-90
2023/03/15 10:47:41;;;;;;;;;2.50;2.00;;;;;26.85;33.52;66747.81;4970772;28;45660;-90
2023/03/15 10:50:15;;;;;;;;;0.50;0.25;;;;;26.50;33.20;67071.50;4968939;28;45612;-90
2023/03/15 10:52:43;;;;;;;;;2.00;1.00;;;;;26.67;32.28;67562.94;4974240;28;45468;-90
2023/03/15 10:55:20;;;;;;;;;1.00;1.00;;;;;27.53;31.04;67997.19;4972168;28;46418;-93
2023/03/15 10:57:55;;;;;;;;;1.00;1.00;;;;;27.17;30.99;68061.63;4957797;28;45817;-94
2023/03/15 11:00:35;;;;;;;;;5.00;2.75;;;;;28.32;30.14;68168.59;4955799;28;45404;-93
2023/03/15 11:03:16;;;;;;;;;2.00;0.75;;;;;28.16;29.13;68193.41;4974490;28;45356;-94
2023/03/15 11:05:44;;;;;;;;;0.75;0.75;;;;;28.98;28.84;68249.44;4970289;28;46865;-93
2023/03/15 11:08:15;;;;;;;;;0.00;0.00;;;;;29.09;27.69;68248.13;4971969;28;45748;-93
2023/03/15 11:10:43;;;;;;;;;1.25;1.00;;;;;29.38;27.56;68186.09;4977876;28;45428;-96
2023/03/15 11:13:29;;;;;;;;;2.00;0.00;;;;;30.08;26.95;68276.44;4960677;28;45613;-96
2023/03/15 11:16:12;;;;;;;;;0.00;0.00;;;;;29.50;26.91;68517.72;4978445;28;47440;-96
2023/03/15 11:18:53;;;;;;;;;0.40;0.40;;;;;28.93;26.41;68640.47;4954962;28;45455;-96
2023/03/15 11:21:25;;;;;;;;;0.25;0.25;;;;;28.06;27.36;68768.91;4982208;28;45439;-96
2023/03/15 11:23:52;;;;;;;;;1.25;1.25;;;;;27.83;27.95;68835.38;4963566;28;45551;-96
2023/03/15 11:26:28;;;;;;;;;0.25;0.00;;;;;28.45;27.45;68789.22;4968950;28;48269;-96
2023/03/15 11:28:59;;;;;;;;;2.50;1.00;;;;;28.48;26.93;68820.56;4969249;28;45483;-96
2023/03/15 11:31:27;;;;;;;;;1.00;1.00;;;;;27.50;27.15;68952.44;5001873;28;45378;-96
2023/03/15 11:33:59;;;;;;;;;2.25;1.00;;;;;26.56;27.66;69030.91;4980555;28;45278;-96
2023/03/15 11:36:29;;;;;;;;;1.50;1.00;;;;;24.97;28.53;69047.63;4974651;28;47309;-96
2023/03/15 11:38:55;;;;;;;;;0.25;0.00;;;;;23.00;29.18;68872.81;4969684;28;45360;-96
2023/03/15 11:44:45;;;;;;;;;1.75;0.00;;;;;22.91;29.09;68973.88;5657521;22;45459;-91
2023/03/15 11:50:15;;;;;;;;;0.50;0.00;;;;;22.00;30.54;69066.97;5066856;23;46013;-94
2023/03/15 11:52:41;;;;;;;;;0.00;0.00;;;;;21.64;31.79;69066.34;4981367;28;45642;-96
2023/03/15 11:55:15;;;;;;;;;0.25;0.25;;;;;21.20;31.71;69089.91;4978589;28;45456;-95
2023/03/15 11:57:44;;;;;;;;;2.00;0.00;;;;;21.83;32.35;69093.13;4999995;28;48133;-95
2023/03/15 12:00:45;;;;;;;;;0.25;0.00;;;;;21.93;31.06;69156.19;5007427;28;45711;-96
2023/03/15 12:03:22;;;;;;;;;0.00;0.00;;;;;21.70;31.25;69111.16;4997396;28;46813;-93
2023/03/15 12:05:58;;;;;;;;;0.00;0.00;;;;;21.27;32.24;69141.84;5003612;28;45366;-94
2023/03/15 12:08:49;;;;;;;;;0.75;0.00;;;;;20.56;32.98;69063.91;5000720;28;45603;-94
2023/03/15 12:11:21;;;;;;;;;1.00;0.75;;;;;20.19;33.58;69045.19;4997773;28;45352;-93
2023/03/15 12:14:04;;;;;;;;;0.75;0.00;;;;;19.37;33.82;69138.31;4996350;28;46604;-94
2023/03/15 12:16:44;;;;;;;;;3.25;1.00;;;;;18.96;34.60;68905.09;4994407;28;45369;-94
2023/03/15 12:19:15;;;;;;;;;0.50;0.00;;;;;18.75;34.87;69111.09;4991840;28;48104;-94
2023/03/15 12:21:51;;;;;;;;;0.25;0.00;;;;;18.86;34.42;68965.56;4984526;28;45648;-93
2023/03/15 12:24:27;;;;;;;;;0.00;0.00;;;;;18.63;34.74;68949.47;4991157;28;45486;-94
2023/03/15 12:27:13;;;;;;;;;3.00;0.00;;;;;18.35;34.75;68893.25;4989763;28;45591;-94
2023/03/15 12:29:38;;;;;;;;;0.50;0.50;;;;;17.59;34.63;68917.56;4975916;28;47436;-93
2023/03/15 12:32:13;;;;;;;;;0.00;0.00;;;;;17.32;34.79;68800.47;4996376;28;45990;-93
2023/03/15 12:34:53;;;;;;;;;2.75;0.00;;;;;17.11;35.44;68997.28;4996349;28;45595;-92
2023/03/15 12:37:37;;;;;;;;;0.00;0.00;;;;;17.23;35.96;68798.41;4997133;28;45530;-93
2023/03/15 12:40:14;;;;;;;;;0.25;0.25;;;;;17.12;36.07;68777.31;4994431;28;45557;-92
2023/03/15 12:42:40;;;;;;;;;0.00;0.00;;;;;17.40;36.01;68756.53;4977728;28;45404;-93
2023/03/15 12:45:14;;;;;;;;;0.00;0.00;;;;;18.01;35.35;68870.06;4979684;28;45459;-93
2023/03/15 12:47:48;;;;;;;;;0.00;0.00;;;;;18.33;34.87;68893.53;4994021;28;45520;-91
2023/03/15 12:50:35;;;;;;;;;2.67;0.00;;;;;18.21;34.45;68917.34;4990624;28;46899;-92
2023/03/15 12:53:04;;;;;;;;;1.00;1.00;;;;;17.84;34.87;68877.19;4986091;28;45596;-92
2023/03/15 12:55:33;;;;;;;;;0.00;0.00;;;;;17.45;35.12;68802.56;4996822;28;45380;-92
2023/03/15 12:58:01;;;;;;;;;0.00;0.00;;;;;17.91;34.91;68839.44;4979145;28;45530;-92
2023/03/15 13:00:32;;;;;;;;;2.00;0.00;;;;;17.48;35.41;69016.75;4991994;28;46762;-93
2023/03/15 13:03:06;;;;;;;;;0.25;0.25;;;;;17.70;35.67;68877.16;4997318;28;45344;-94
2023/03/15 13:05:36;;;;;;;;;1.00;0.00;;;;;16.98;35.13;68736.63;4995145;28;45510;-93
2023/03/15 13:08:21;;;;;;;;;0.00;0.00;;;;;17.03;34.66;68747.91;4996524;28;45737;-92
2023/03/15 13:11:10;;;;;;;;;1.33;1.33;;;;;16.45;35.20;68878.28;4994807;28;45836;-89
2023/03/15 13:13:46;;;;;;;;;1.00;0.00;;;;;17.24;36.15;68831.66;4996379;28;45427;-89
2023/03/15 13:16:18;;;;;;;;;0.00;0.00;;;;;16.58;35.48;68709.56;4996441;28;45484;-89
2023/03/15 13:18:51;;;;;;;;;2.00;1.00;;;;;17.01;36.16;68786.19;4992848;28;45504;-89
2023/03/15 13:21:18;;;;;;;;;0.75;0.50;;;;;17.05;36.30;68777.00;4970673;28;48080;-88
2023/03/15 13:23:50;;;;;;;;;0.67;0.00;;;;;17.07;35.58;68750.00;4995440;28;45515;-89
2023/03/15 13:26:34;;;;;;;;;2.00;0.25;;;;;17.48;35.74;68814.16;4992294;28;45561;-89
2023/03/15 13:29:05;;;;;;;;;0.33;0.33;;;;;17.64;34.98;68840.00;4967206;28;45446;-90
2023/03/15 13:31:31;;;;;;;;;2.67;1.00;;;;;16.69;35.37;68708.66;4979584;28;47284;-90
2023/03/15 13:34:10;;;;;;;;;0.00;0.00;;;;;17.56;35.40;68851.88;4994964;28;45494;-89
2023/03/15 13:36:42;;;;;;;;;0.00;0.00;;;;;17.10;35.18;68847.06;4982458;28;45433;-90
2023/03/15 13:39:22;;;;;;;;;3.00;0.67;;;;;17.12;35.89;68790.06;4995055;28;45646;-89
2023/03/15 13:41:48;;;;;;;;;0.00;0.00;;;;;16.97;36.73;68730.66;4981755;28;48467;-89
2023/03/15 13:44:18;;;;;;;;;0.00;0.00;;;;;16.58;35.86;68741.59;4995178;28;45561;-89
2023/03/15 13:46:46;;;;;;;;;1.67;1.00;;;;;16.81;35.67;68696.25;4996280;28;45384;-90
2023/03/15 13:49:12;;;;;;;;;3.00;0.00;;;;;16.90;35.64;68789.13;4996537;28;45392;-89
2023/03/15 13:51:38;;;;;;;;;0.00;0.00;;;;;16.71;36.00;68711.03;4996320;28;46362;-89
2023/03/15 13:54:23;;;;;;;;;0.00;0.00;;;;;16.80;36.52;68774.59;4995963;28;45288;-89
2023/03/15 13:56:54;;;;;;;;;1.33;0.00;;;;;16.79;36.17;68757.38;4971913;28;45763;-89
2023/03/15 13:59:22;;;;;;;;;1.00;0.00;;;;;15.87;35.98;68669.09;4992196;28;46195;-90
2023/03/15 14:01:52;;;;;;;;;0.00;0.00;;;;;16.17;36.09;68675.38;4989191;28;45402;-89
2023/03/15 14:04:20;;;;;;;;;1.00;0.00;;;;;16.52;36.76;68731.78;4973836;28;45546;-89
2023/03/15 14:06:46;;;;;;;;;2.00;1.00;;;;;15.74;36.65;68630.25;4993256;28;45574;-89
2023/03/15 14:09:30;;;;;;;;;0.67;0.67;;;;;15.94;36.65;68608.66;4993862;28;45549;-92
2023/03/15 14:12:01;;;;;;;;;0.00;0.00;;;;;16.35;37.31;68727.59;4976605;28;48616;-93
2023/03/15 14:14:29;;;;;;;;;0.33;0.33;;;;;16.33;36.88;68709.81;4978884;28;45420;-92
2023/03/15 14:16:56;;;;;;;;;0.67;0.00;;;;;15.88;36.73;68587.63;4993605;28;45798;-92
2023/03/15 14:19:30;;;;;;;;;2.00;2.00;;;;;16.31;36.94;68712.75;4994531;28;46314;-96
2023/03/15 14:21:56;;;;;;;;;0.00;0.00;;;;;16.30;37.19;68706.25;4989665;28;47402;-96
2023/03/15 14:24:45;;;;;;;;;0.33;0.00;;;;;16.27;37.22;68715.41;4971271;28;47405;-94
2023/03/15 14:27:18;;;;;;;;;2.33;1.00;;;;;16.26;37.22;68754.84;4976860;28;45517;-96
2023/03/15 14:29:56;;;;;;;;;0.33;0.33;;;;;16.24;37.21;68688.44;4977953;28;45450;-96
2023/03/15 14:32:31;;;;;;;;;2.00;1.00;;;;;16.18;37.63;68916.09;5004039;28;48208;-93
2023/03/15 14:35:22;;;;;;;;;0.00;0.00;;;;;16.16;37.08;68724.88;4994333;28;46372;-93
2023/03/15 14:38:13;;;;;;;;;1.00;1.00;;;;;16.13;37.18;68699.38;4966934;28;45999;-93
2023/03/15 14:40:39;;;;;;;;;1.00;0.00;;;;;16.13;37.00;68651.97;4983394;28;46175;-93
2023/03/15 14:43:07;;;;;;;;;0.00;0.00;;;;;15.27;36.95;68658.81;4976614;28;49081;-93
2023/03/15 14:45:35;;;;;;;;;0.00;0.00;;;;;15.97;36.91;68924.28;4992132;28;45487;-93
2023/03/15 14:48:21;;;;;;;;;0.33;0.00;;;;;15.98;36.46;68642.75;4972147;28;45638;-93
2023/03/15 14:50:47;;;;;;;;;0.00;0.00;;;;;15.47;36.22;68652.66;4991291;28;45656;-93
2023/03/15 14:53:18;;;;;;;;;1.00;0.00;;;;;15.16;36.69;68529.13;4991482;28;48738;-91
2023/03/15 14:55:44;;;;;;;;;0.00;0.00;;;;;14.72;36.74;68512.75;4992638;28;45502;-91
2023/03/15 14:58:16;;;;;;;;;0.00;0.00;;;;;15.80;36.80;68685.38;4973723;28;45726;-91
2023/03/15 15:00:43;;;;;;;;;0.00;0.00;;;;;15.43;37.47;68858.44;4992090;28;45473;-91
2023/03/15 15:03:32;;;;;;;;;1.00;0.00;;;;;15.75;37.16;68658.69;4977223;28;47198;-91
2023/03/15 15:06:00;;;;;;;;;0.00;0.00;;;;;15.74;37.40;68657.50;4994407;28;45680;-91
2023/03/15 15:08:26;;;;;;;;;0.00;0.00;;;;;15.72;37.46;68635.88;4972374;28;45443;-91
2023/03/15 15:10:55;;;;;;;;;0.00;0.00;;;;;15.49;37.44;68612.41;4980208;28;45408;-92
2023/03/15 15:13:28;;;;;;;;;0.00;0.00;;;;;15.70;37.29;68650.09;4987677;28;46631;-93
2023/03/15 15:15:55;;;;;;;;;0.67;0.00;;;;;15.30;37.66;68635.72;4977551;28;45667;-93
2023/03/15 15:18:25;;;;;;;;;0.00;0.00;;;;;15.67;37.91;68697.16;4991952;28;45569;-94
2023/03/15 15:20:54;;;;;;;;;2.00;0.00;;;;;15.66;37.83;68623.97;4993224;28;45452;-93
2023/03/15 15:23:26;;;;;;;;;0.00;0.00;;;;;15.62;38.00;68614.50;4976813;28;47162;-92
2023/03/15 15:25:56;;;;;;;;;0.00;0.00;;;;;15.61;37.72;68671.94;4977163;28;45886;-93
2023/03/15 15:28:21;;;;;;;;;0.00;0.00;;;;;15.59;37.71;68631.66;5006329;28;45432;-94
2023/03/15 15:30:47;;;;;;;;;1.00;0.00;;;;;14.88;37.79;68568.41;4977685;28;45581;-93
2023/03/15 15:33:12;;;;;;;;;0.00;0.00;;;;;15.30;37.69;68603.75;4992271;28;48108;-93
2023/03/15 15:35:37;;;;;;;;;0.00;0.00;;;;;15.37;37.66;68609.41;4977000;28;45510;-94
2023/03/15 15:38:09;;;;;;;;;0.00;0.00;;;;;15.12;37.82;68539.78;4990142;28;45579;-94
2023/03/15 15:40:35;;;;;;;;;0.00;0.00;;;;;15.58;37.78;68579.84;4990571;28;45507;-94
2023/03/15 15:43:02;;;;;;;;;0.00;0.00;;;;;15.29;37.76;68628.59;4978641;28;47249;-94
2023/03/15 15:45:28;;;;;;;;;0.33;0.00;;;;;15.53;37.19;68581.91;4993749;28;45585;-94
2023/03/15 15:47:53;;;;;;;;;1.33;0.00;;;;;15.47;37.48;68588.13;4979042;28;45662;-94
2023/03/15 15:50:19;;;;;;;;;0.00;0.00;;;;;15.46;37.81;68608.25;4983174;28;45667;-95
2023/03/15 15:52:48;;;;;;;;;0.00;0.00;;;;;14.94;37.49;68618.13;4994138;28;47212;-95
2023/03/15 15:55:17;;;;;;;;;0.67;0.67;;;;;15.25;37.68;68559.94;4994098;28;45517;-94
2023/03/15 15:57:45;;;;;;;;;0.00;0.00;;;;;15.37;37.38;68662.69;4997751;28;45544;-95
2023/03/15 16:00:18;;;;;;;;;0.00;0.00;;;;;15.34;37.50;68640.47;4996575;28;45471;-92
2023/03/15 16:02:43;;;;;;;;;0.00;0.00;;;;;15.35;37.89;68598.44;4994810;28;48107;-93
2023/03/15 16:05:09;;;;;;;;;0.00;0.00;;;;;14.71;37.78;68546.16;4997283;28;45808;-93
2023/03/15 16:07:36;;;;;;;;;2.67;0.00;;;;;15.26;37.68;68636.28;4997651;28;45448;-94
2023/03/15 16:10:02;;;;;;;;;0.00;0.00;;;;;15.23;37.84;68598.13;4995938;28;45535;-94
2023/03/15 16:12:28;;;;;;;;;0.00;0.00;;;;;14.48;38.07;68500.22;4996422;28;48525;-93
2023/03/15 16:14:54;;;;;;;;;2.00;0.00;;;;;14.74;37.81;68491.16;4996032;28;45920;-94
2023/03/15 16:17:21;;;;;;;;;1.00;0.00;;;;;15.16;37.85;68573.81;4997328;28;45358;-94
2023/03/15 16:19:48;;;;;;;;;0.00;0.00;;;;;15.13;38.10;68567.59;4997054;28;45317;-93
2023/03/15 16:22:14;;;;;;;;;0.00;0.00;;;;;15.07;37.68;68581.78;4979549;28;48345;-94
2023/03/15 16:24:44;;;;;;;;;0.00;0.00;;;;;14.70;38.05;68473.13;4978823;28;45549;-95
2023/03/15 16:27:15;;;;;;;;;0.00;0.00;;;;;15.02;37.69;68549.81;4997602;28;45426;-94
2023/03/15 16:29:46;;;;;;;;;0.00;0.00;;;;;15.01;37.99;68518.72;4979293;28;45723;-93
2023/03/15 16:32:17;;;;;;;;;0.00;0.00;;;;;14.58;38.23;68474.84;4982479;28;48259;-93
2023/03/15 16:34:44;;;;;;;;;0.00;0.00;;;;;14.91;38.42;68547.41;4979317;28;45855;-93
2023/03/15 16:37:12;;;;;;;;;0.67;0.00;;;;;14.72;38.66;68775.66;4974081;28;45602;-93
2023/03/15 16:39:42;;;;;;;;;0.00;0.00;;;;;14.84;39.01;68473.13;4980497;28;45550;-95
2023/03/15 16:42:11;;;;;;;;;0.00;0.00;;;;;14.79;39.17;68520.44;4980898;28;47173;-93
2023/03/15 16:44:36;;;;;;;;;0.00;0.00;;;;;13.95;38.97;68433.81;4974040;28;46283;-94
2023/03/15 16:47:01;;;;;;;;;0.00;0.00;;;;;13.66;38.85;68459.09;4980418;28;45713;-94
2023/03/15 16:49:27;;;;;;;;;2.00;1.00;;;;;14.21;39.83;68503.97;4981030;28;45435;-94
2023/03/15 16:51:52;;;;;;;;;0.00;0.00;;;;;14.72;39.11;68494.09;4973523;28;47187;-94
2023/03/15 16:54:20;;;;;;;;;0.00;0.00;;;;;14.68;39.38;68539.94;4958238;28;45955;-94
2023/03/15 16:56:45;;;;;;;;;1.00;1.00;;;;;14.69;39.26;68535.22;4956332;28;46908;-94
2023/03/15 16:59:16;;;;;;;;;1.67;0.67;;;;;13.69;39.40;68369.66;4958513;28;45353;-94
2023/03/15 17:01:42;;;;;;;;;0.00;0.00;;;;;14.35;39.44;68501.34;4955070;28;47683;-96
2023/03/15 17:04:08;;;;;;;;;0.00;0.00;;;;;14.66;39.37;68542.31;4952429;28;45448;-95
2023/03/15 17:06:33;;;;;;;;;0.00;0.00;;;;;14.64;38.92;68529.88;4962294;28;45334;-94
2023/03/15 17:09:13;;;;;;;;;0.00;0.00;;;;;14.19;39.15;68604.69;4953197;28;45598;-89
2023/03/15 17:11:41;;;;;;;;;0.00;0.00;;;;;14.63;38.67;68570.66;4950758;28;46231;-89
2023/03/15 17:14:15;;;;;;;;;0.33;0.00;;;;;14.14;39.16;68424.47;4950469;28;45414;-88
2023/03/15 17:16:40;;;;;;;;;1.00;0.00;;;;;14.13;39.12;68704.53;4955713;28;46109;-88
2023/03/15 17:19:13;;;;;;;;;0.00;0.00;;;;;14.32;39.21;68543.00;4952516;28;45861;-89
2023/03/15 17:21:40;;;;;;;;;0.00;0.00;;;;;13.94;39.18;68499.09;4954639;28;45670;-89
2023/03/15 17:24:08;;;;;;;;;0.00;0.00;;;;;14.52;39.35;68515.63;4971775;28;45345;-89
2023/03/15 17:26:33;;;;;;;;;0.00;0.00;;;;;13.89;39.07;68453.91;4956680;28;45352;-89
2023/03/15 17:29:00;;;;;;;;;0.00;0.00;;;;;13.88;39.11;68502.59;4956324;28;45633;-88
2023/03/15 17:31:30;;;;;;;;;2.00;0.00;;;;;14.17;38.95;68501.28;4956228;28;45536;-88
2023/03/15 17:33:56;;;;;;;;;0.00;0.00;;;;;13.62;39.21;68406.53;4971989;28;45381;-89
2023/03/15 17:36:24;;;;;;;;;1.00;1.00;;;;;14.29;39.80;68701.69;4956961;28;45712;-88
2023/03/15 17:38:49;;;;;;;;;1.00;0.00;;;;;14.34;39.64;68487.47;4957804;28;45703;-88
2023/03/15 17:41:23;;;;;;;;;0.00;0.00;;;;;14.29;39.40;68484.19;4947898;28;47820;-88
2023/03/15 17:43:50;;;;;;;;;0.00;0.00;;;;;14.25;39.46;68518.75;4952484;28;45838;-89
2023/03/15 17:46:20;;;;;;;;;0.00;0.00;;;;;13.77;39.83;68377.97;4966680;28;45401;-89
2023/03/15 17:48:46;;;;;;;;;3.33;1.00;;;;;13.52;39.41;68442.50;4975315;28;45357;-88
2023/03/15 17:51:18;;;;;;;;;3.00;1.67;;;;;12.88;39.58;68284.06;4985034;28;48365;-88
2023/03/15 17:53:43;;;;;;;;;2.33;1.33;;;;;12.57;39.35;68499.31;4966250;28;45687;-88
2023/03/15 17:56:08;;;;;;;;;1.33;1.33;;;;;13.09;39.75;68337.53;4988218;28;45390;-89
2023/03/15 17:58:34;;;;;;;;;2.33;1.67;;;;;13.23;39.98;68374.16;4987196;28;45360;-89
2023/03/15 18:00:59;;;;;;;;;3.33;2.00;;;;;13.63;40.60;68450.22;4972153;28;45571;-89